sensor_id;sensor_type;location;lat;lon;timestamp;temperature;humidity
2997;DHT22;1508;48.744;9.110;2022-11-21T00:01:22;5.00;99.90
2997;DHT22;1508;48.744;9.110;2022-11-21T00:04:08;5.00;99.90
2997;DHT22;1508;48.744;9.110;2022-11-21T00:06:54;5.00;99.90
2997;DHT22;1508;48.744;9.110;2022-11-21T00:09:40;5.00;99.90
2997;DHT22;1508;48.744;9.110;2022-11-21T00:12:26;4.90;99.90
2997;DHT22;1508;48.744;9.110;2022-11-21T00:15:12;4.90;99.90
2997;DHT22;1508;48.744;9.110;2022-11-21T00:17:58;4.90;99.90
2997;DHT22;1508;48.744;9.110;2022-11-21T00:20:46;4.80;99.90
2997;DHT22;1508;48.744;9.110;2022-11-21T00:23:32;4.80;99.90
2997;DHT22;1508;48.744;9.110;2022-11-21T00:26:18;4.90;99.90
2997;DHT22;1508;48.744;9.110;2022-11-21T00:29:04;4.90;99.90
2997;DHT22;1508;48.744;9.110;2022-11-21T00:31:50;4.90;99.90
2997;DHT22;1508;48.744;9.110;2022-11-21T00:34:35;4.80;99.90
2997;DHT22;1508;48.744;9.110;2022-11-21T00:37:21;4.80;99.90
2997;DHT22;1508;48.744;9.110;2022-11-21T00:40:07;4.70;99.90
2997;DHT22;1508;48.744;9.110;2022-11-21T00:42:53;4.70;99.90
2997;DHT22;1508;48.744;9.110;2022-11-21T00:45:39;4.70;99.90
2997;DHT22;1508;48.744;9.110;2022-11-21T00:48:25;4.60;99.90
2997;DHT22;1508;48.744;9.110;2022-11-21T00:51:11;4.60;99.90
2997;DHT22;1508;48.744;9.110;2022-11-21T00:53:57;4.60;99.90
2997;DHT22;1508;48.744;9.110;2022-11-21T00:56:42;4.40;99.90
2997;DHT22;1508;48.744;9.110;2022-11-21T00:59:28;4.40;99.90
2997;DHT22;1508;48.744;9.110;2022-11-21T01:02:14;4.30;99.90
2997;DHT22;1508;48.744;9.110;2022-11-21T01:05:00;4.30;99.90
2997;DHT22;1508;48.744;9.110;2022-11-21T01:07:47;4.20;99.90
2997;DHT22;1508;48.744;9.110;2022-11-21T01:10:34;4.20;99.90
2997;DHT22;1508;48.744;9.110;2022-11-21T01:13:20;4.20;99.90
2997;DHT22;1508;48.744;9.110;2022-11-21T01:16:15;4.30;99.90
2997;DHT22;1508;48.744;9.110;2022-11-21T01:19:01;4.30;99.90
2997;DHT22;1508;48.744;9.110;2022-11-21T01:21:47;4.40;99.90
2997;DHT22;1508;48.744;9.110;2022-11-21T01:24:33;4.40;99.90
2997;DHT22;1508;48.744;9.110;2022-11-21T01:27:19;4.40;99.90
2997;DHT22;1508;48.744;9.110;2022-11-21T01:30:05;4.50;99.90
2997;DHT22;1508;48.744;9.110;2022-11-21T01:32:51;4.50;99.90
2997;DHT22;1508;48.744;9.110;2022-11-21T01:35:37;4.50;99.90
2997;DHT22;1508;48.744;9.110;2022-11-21T01:38:23;4.50;99.90
2997;DHT22;1508;48.744;9.110;2022-11-21T01:41:10;4.50;99.90
2997;DHT22;1508;48.744;9.110;2022-11-21T01:43:57;4.50;99.90
2997;DHT22;1508;48.744;9.110;2022-11-21T01:46:43;4.50;99.90
2997;DHT22;1508;48.744;9.110;2022-11-21T01:49:30;4.50;99.90
2997;DHT22;1508;48.744;9.110;2022-11-21T01:52:24;4.50;99.90
2997;DHT22;1508;48.744;9.110;2022-11-21T01:55:10;4.50;99.90
2997;DHT22;1508;48.744;9.110;2022-11-21T01:57:56;4.60;99.90
2997;DHT22;1508;48.744;9.110;2022-11-21T02:00:44;4.60;99.90
2997;DHT22;1508;48.744;9.110;2022-11-21T02:03:37;4.60;99.90
2997;DHT22;1508;48.744;9.110;2022-11-21T02:06:24;4.60;99.90
2997;DHT22;1508;48.744;9.110;2022-11-21T02:09:10;4.60;99.90
2997;DHT22;1508;48.744;9.110;2022-11-21T02:12:12;4.60;99.90
2997;DHT22;1508;48.744;9.110;2022-11-21T02:15:00;4.60;99.90
2997;DHT22;1508;48.744;9.110;2022-11-21T02:17:46;4.40;99.90
2997;DHT22;1508;48.744;9.110;2022-11-21T02:20:32;4.40;99.90
2997;DHT22;1508;48.744;9.110;2022-11-21T02:23:36;4.30;99.90
2997;DHT22;1508;48.744;9.110;2022-11-21T02:26:24;4.20;99.90
2997;DHT22;1508;48.744;9.110;2022-11-21T02:29:10;4.20;99.90
2997;DHT22;1508;48.744;9.110;2022-11-21T02:31:59;4.20;99.90
2997;DHT22;1508;48.744;9.110;2022-11-21T02:34:47;4.10;99.90
2997;DHT22;1508;48.744;9.110;2022-11-21T02:37:34;4.10;99.90
2997;DHT22;1508;48.744;9.110;2022-11-21T02:40:28;4.10;99.90
2997;DHT22;1508;48.744;9.110;2022-11-21T02:43:23;4.20;99.90
2997;DHT22;1508;48.744;9.110;2022-11-21T02:46:10;4.10;99.90
2997;DHT22;1508;48.744;9.110;2022-11-21T02:48:56;4.10;99.90
2997;DHT22;1508;48.744;9.110;2022-11-21T02:51:43;4.10;99.90
2997;DHT22;1508;48.744;9.110;2022-11-21T02:54:28;4.10;99.90
2997;DHT22;1508;48.744;9.110;2022-11-21T02:57:14;4.10;99.90
2997;DHT22;1508;48.744;9.110;2022-11-21T03:00:00;4.20;99.90
2997;DHT22;1508;48.744;9.110;2022-11-21T03:02:46;4.20;99.90
2997;DHT22;1508;48.744;9.110;2022-11-21T03:05:32;4.20;99.90
2997;DHT22;1508;48.744;9.110;2022-11-21T03:08:18;4.20;99.90
2997;DHT22;1508;48.744;9.110;2022-11-21T03:11:04;4.20;99.90
2997;DHT22;1508;48.744;9.110;2022-11-21T03:13:50;4.20;99.90
2997;DHT22;1508;48.744;9.110;2022-11-21T03:16:35;4.10;99.90
2997;DHT22;1508;48.744;9.110;2022-11-21T03:19:21;4.10;99.90
2997;DHT22;1508;48.744;9.110;2022-11-21T03:22:07;4.00;99.90
2997;DHT22;1508;48.744;9.110;2022-11-21T03:24:53;4.00;99.90
2997;DHT22;1508;48.744;9.110;2022-11-21T03:27:39;4.00;99.90
2997;DHT22;1508;48.744;9.110;2022-11-21T03:30:25;4.00;99.90
2997;DHT22;1508;48.744;9.110;2022-11-21T03:33:11;4.00;99.90
2997;DHT22;1508;48.744;9.110;2022-11-21T03:35:57;4.10;99.90
2997;DHT22;1508;48.744;9.110;2022-11-21T03:38:43;4.10;99.90
2997;DHT22;1508;48.744;9.110;2022-11-21T03:41:28;4.10;99.90
2997;DHT22;1508;48.744;9.110;2022-11-21T03:44:14;4.20;99.90
2997;DHT22;1508;48.744;9.110;2022-11-21T03:47:00;4.20;99.90
2997;DHT22;1508;48.744;9.110;2022-11-21T03:49:46;4.20;99.90
2997;DHT22;1508;48.744;9.110;2022-11-21T03:52:32;4.30;99.90
2997;DHT22;1508;48.744;9.110;2022-11-21T03:55:18;4.30;99.90
2997;DHT22;1508;48.744;9.110;2022-11-21T03:58:03;4.40;99.90
2997;DHT22;1508;48.744;9.110;2022-11-21T04:00:49;4.40;99.90
2997;DHT22;1508;48.744;9.110;2022-11-21T04:03:35;4.50;99.90
2997;DHT22;1508;48.744;9.110;2022-11-21T04:06:21;4.50;99.90
2997;DHT22;1508;48.744;9.110;2022-11-21T04:09:07;4.70;99.90
2997;DHT22;1508;48.744;9.110;2022-11-21T04:11:53;4.70;99.90
2997;DHT22;1508;48.744;9.110;2022-11-21T04:14:38;4.80;99.90
2997;DHT22;1508;48.744;9.110;2022-11-21T04:17:24;4.80;99.90
2997;DHT22;1508;48.744;9.110;2022-11-21T04:20:13;4.80;99.90
2997;DHT22;1508;48.744;9.110;2022-11-21T04:22:59;4.80;99.90
2997;DHT22;1508;48.744;9.110;2022-11-21T04:25:45;4.80;99.90
2997;DHT22;1508;48.744;9.110;2022-11-21T04:28:31;4.90;99.90
2997;DHT22;1508;48.744;9.110;2022-11-21T04:31:16;5.00;99.90
2997;DHT22;1508;48.744;9.110;2022-11-21T04:34:02;5.00;99.90
2997;DHT22;1508;48.744;9.110;2022-11-21T04:36:48;5.00;99.90
2997;DHT22;1508;48.744;9.110;2022-11-21T04:39:34;5.00;99.90
2997;DHT22;1508;48.744;9.110;2022-11-21T04:42:20;5.00;99.90
2997;DHT22;1508;48.744;9.110;2022-11-21T04:45:06;5.00;99.90
2997;DHT22;1508;48.744;9.110;2022-11-21T04:47:52;5.00;99.90
2997;DHT22;1508;48.744;9.110;2022-11-21T04:50:38;5.00;99.90
2997;DHT22;1508;48.744;9.110;2022-11-21T04:53:24;4.90;99.90
2997;DHT22;1508;48.744;9.110;2022-11-21T04:56:10;5.00;99.90
2997;DHT22;1508;48.744;9.110;2022-11-21T04:58:56;5.00;99.90
2997;DHT22;1508;48.744;9.110;2022-11-21T05:01:41;5.10;99.90
2997;DHT22;1508;48.744;9.110;2022-11-21T05:04:27;5.00;99.90
2997;DHT22;1508;48.744;9.110;2022-11-21T05:07:14;4.90;99.90
2997;DHT22;1508;48.744;9.110;2022-11-21T05:10:00;4.90;99.90
2997;DHT22;1508;48.744;9.110;2022-11-21T05:12:46;4.80;99.90
2997;DHT22;1508;48.744;9.110;2022-11-21T05:15:31;4.80;99.90
2997;DHT22;1508;48.744;9.110;2022-11-21T05:18:18;4.70;99.90
2997;DHT22;1508;48.744;9.110;2022-11-21T05:21:04;4.70;99.90
2997;DHT22;1508;48.744;9.110;2022-11-21T05:23:50;4.70;99.90
2997;DHT22;1508;48.744;9.110;2022-11-21T05:26:35;4.70;99.90
2997;DHT22;1508;48.744;9.110;2022-11-21T05:29:21;4.80;99.90
2997;DHT22;1508;48.744;9.110;2022-11-21T05:32:07;4.80;99.90
2997;DHT22;1508;48.744;9.110;2022-11-21T05:34:53;4.80;99.90
2997;DHT22;1508;48.744;9.110;2022-11-21T05:37:39;4.90;99.90
2997;DHT22;1508;48.744;9.110;2022-11-21T05:40:25;4.80;99.90
2997;DHT22;1508;48.744;9.110;2022-11-21T05:43:11;4.80;99.90
2997;DHT22;1508;48.744;9.110;2022-11-21T05:45:57;4.70;99.90
2997;DHT22;1508;48.744;9.110;2022-11-21T05:48:43;4.70;99.90
2997;DHT22;1508;48.744;9.110;2022-11-21T05:51:29;4.70;99.90
2997;DHT22;1508;48.744;9.110;2022-11-21T05:54:22;4.70;99.90
2997;DHT22;1508;48.744;9.110;2022-11-21T05:57:07;4.70;99.90
2997;DHT22;1508;48.744;9.110;2022-11-21T05:59:53;4.70;99.90
2997;DHT22;1508;48.744;9.110;2022-11-21T06:02:42;4.70;99.90
2997;DHT22;1508;48.744;9.110;2022-11-21T06:05:28;4.80;99.90
2997;DHT22;1508;48.744;9.110;2022-11-21T06:08:14;4.80;99.90
2997;DHT22;1508;48.744;9.110;2022-11-21T06:11:01;4.80;99.90
2997;DHT22;1508;48.744;9.110;2022-11-21T06:13:47;4.90;99.90
2997;DHT22;1508;48.744;9.110;2022-11-21T06:16:33;4.90;99.90
2997;DHT22;1508;48.744;9.110;2022-11-21T06:19:19;5.10;99.90
2997;DHT22;1508;48.744;9.110;2022-11-21T06:22:05;5.10;99.90
2997;DHT22;1508;48.744;9.110;2022-11-21T06:24:50;5.10;99.90
2997;DHT22;1508;48.744;9.110;2022-11-21T06:27:36;5.20;99.90
2997;DHT22;1508;48.744;9.110;2022-11-21T06:30:22;5.30;99.90
2997;DHT22;1508;48.744;9.110;2022-11-21T06:33:08;5.30;99.90
2997;DHT22;1508;48.744;9.110;2022-11-21T06:35:54;5.40;99.90
2997;DHT22;1508;48.744;9.110;2022-11-21T06:38:40;5.40;99.90
2997;DHT22;1508;48.744;9.110;2022-11-21T06:41:26;5.50;99.90
2997;DHT22;1508;48.744;9.110;2022-11-21T06:44:12;5.50;99.90
2997;DHT22;1508;48.744;9.110;2022-11-21T06:46:57;5.50;99.90
2997;DHT22;1508;48.744;9.110;2022-11-21T06:49:43;5.60;99.90
2997;DHT22;1508;48.744;9.110;2022-11-21T06:52:32;5.40;99.90
2997;DHT22;1508;48.744;9.110;2022-11-21T06:55:18;5.30;99.90
2997;DHT22;1508;48.744;9.110;2022-11-21T06:58:03;5.30;99.90
2997;DHT22;1508;48.744;9.110;2022-11-21T07:00:49;5.30;99.90
2997;DHT22;1508;48.744;9.110;2022-11-21T07:03:35;5.20;99.90
2997;DHT22;1508;48.744;9.110;2022-11-21T07:06:22;5.10;99.90
2997;DHT22;1508;48.744;9.110;2022-11-21T07:09:08;5.10;99.90
2997;DHT22;1508;48.744;9.110;2022-11-21T07:11:54;5.00;99.90
2997;DHT22;1508;48.744;9.110;2022-11-21T07:14:40;5.00;99.90
2997;DHT22;1508;48.744;9.110;2022-11-21T07:17:26;4.90;99.90
2997;DHT22;1508;48.744;9.110;2022-11-21T07:20:11;4.90;99.90
2997;DHT22;1508;48.744;9.110;2022-11-21T07:22:57;5.00;99.90
2997;DHT22;1508;48.744;9.110;2022-11-21T07:25:43;5.00;99.90
2997;DHT22;1508;48.744;9.110;2022-11-21T07:28:29;5.00;99.90
2997;DHT22;1508;48.744;9.110;2022-11-21T07:31:15;5.10;99.90
2997;DHT22;1508;48.744;9.110;2022-11-21T07:34:01;5.30;99.90
2997;DHT22;1508;48.744;9.110;2022-11-21T07:36:47;5.30;99.90
2997;DHT22;1508;48.744;9.110;2022-11-21T07:39:33;5.30;99.90
2997;DHT22;1508;48.744;9.110;2022-11-21T07:42:18;5.40;99.90
2997;DHT22;1508;48.744;9.110;2022-11-21T07:45:05;5.50;99.90
2997;DHT22;1508;48.744;9.110;2022-11-21T07:47:57;5.60;99.90
2997;DHT22;1508;48.744;9.110;2022-11-21T07:50:43;5.70;99.90
2997;DHT22;1508;48.744;9.110;2022-11-21T07:53:29;5.80;99.90
2997;DHT22;1508;48.744;9.110;2022-11-21T07:56:14;5.90;99.90
2997;DHT22;1508;48.744;9.110;2022-11-21T07:59:00;6.00;99.90
2997;DHT22;1508;48.744;9.110;2022-11-21T08:01:46;6.20;99.90
2997;DHT22;1508;48.744;9.110;2022-11-21T08:04:32;6.30;99.90
2997;DHT22;1508;48.744;9.110;2022-11-21T08:07:19;6.40;99.90
2997;DHT22;1508;48.744;9.110;2022-11-21T08:10:05;6.40;99.90
2997;DHT22;1508;48.744;9.110;2022-11-21T08:12:51;6.30;99.90
2997;DHT22;1508;48.744;9.110;2022-11-21T08:15:38;6.20;99.90
2997;DHT22;1508;48.744;9.110;2022-11-21T08:18:24;6.20;99.90
2997;DHT22;1508;48.744;9.110;2022-11-21T08:21:09;6.30;99.90
2997;DHT22;1508;48.744;9.110;2022-11-21T08:23:55;6.30;99.90
2997;DHT22;1508;48.744;9.110;2022-11-21T08:26:41;6.40;99.90
2997;DHT22;1508;48.744;9.110;2022-11-21T08:29:27;6.50;99.90
2997;DHT22;1508;48.744;9.110;2022-11-21T08:32:13;6.60;99.90
2997;DHT22;1508;48.744;9.110;2022-11-21T08:34:59;6.80;99.90
2997;DHT22;1508;48.744;9.110;2022-11-21T08:37:45;6.90;99.90
2997;DHT22;1508;48.744;9.110;2022-11-21T08:40:31;6.90;99.90
2997;DHT22;1508;48.744;9.110;2022-11-21T08:43:17;7.00;99.90
2997;DHT22;1508;48.744;9.110;2022-11-21T08:46:03;7.10;99.90
2997;DHT22;1508;48.744;9.110;2022-11-21T08:48:49;7.30;99.90
2997;DHT22;1508;48.744;9.110;2022-11-21T08:51:35;7.70;99.90
2997;DHT22;1508;48.744;9.110;2022-11-21T08:54:22;7.80;99.90
2997;DHT22;1508;48.744;9.110;2022-11-21T08:57:08;8.30;99.90
2997;DHT22;1508;48.744;9.110;2022-11-21T08:59:54;8.40;99.90
2997;DHT22;1508;48.744;9.110;2022-11-21T09:02:40;8.40;99.90
2997;DHT22;1508;48.744;9.110;2022-11-21T09:05:26;8.70;99.90
2997;DHT22;1508;48.744;9.110;2022-11-21T09:08:12;8.90;99.90
2997;DHT22;1508;48.744;9.110;2022-11-21T09:11:02;9.10;99.90
2997;DHT22;1508;48.744;9.110;2022-11-21T09:13:48;9.20;99.90
2997;DHT22;1508;48.744;9.110;2022-11-21T09:16:34;9.40;99.90
2997;DHT22;1508;48.744;9.110;2022-11-21T09:19:20;9.70;99.90
2997;DHT22;1508;48.744;9.110;2022-11-21T09:22:06;9.80;99.90
2997;DHT22;1508;48.744;9.110;2022-11-21T09:24:52;9.60;99.90
2997;DHT22;1508;48.744;9.110;2022-11-21T09:27:38;9.90;99.90
2997;DHT22;1508;48.744;9.110;2022-11-21T09:30:23;9.90;99.90
2997;DHT22;1508;48.744;9.110;2022-11-21T09:33:11;9.60;99.90
2997;DHT22;1508;48.744;9.110;2022-11-21T09:35:58;10.00;99.90
2997;DHT22;1508;48.744;9.110;2022-11-21T09:38:44;9.70;99.90
2997;DHT22;1508;48.744;9.110;2022-11-21T09:47:31;9.60;99.90
2997;DHT22;1508;48.744;9.110;2022-11-21T09:50:29;9.60;99.90
2997;DHT22;1508;48.744;9.110;2022-11-21T09:53:29;9.60;99.90
2997;DHT22;1508;48.744;9.110;2022-11-21T09:56:16;9.70;99.90
2997;DHT22;1508;48.744;9.110;2022-11-21T10:02:21;10.20;99.90
2997;DHT22;1508;48.744;9.110;2022-11-21T10:05:12;10.10;99.90
2997;DHT22;1508;48.744;9.110;2022-11-21T10:08:05;10.20;99.90
2997;DHT22;1508;48.744;9.110;2022-11-21T10:14:14;10.40;99.90
2997;DHT22;1508;48.744;9.110;2022-11-21T10:17:24;10.40;99.90
2997;DHT22;1508;48.744;9.110;2022-11-21T10:32:17;10.30;99.90
2997;DHT22;1508;48.744;9.110;2022-11-21T10:35:18;10.50;99.90
2997;DHT22;1508;48.744;9.110;2022-11-21T10:38:25;10.60;99.90
2997;DHT22;1508;48.744;9.110;2022-11-21T10:44:24;10.40;99.90
2997;DHT22;1508;48.744;9.110;2022-11-21T10:47:19;10.50;99.90
2997;DHT22;1508;48.744;9.110;2022-11-21T10:53:16;10.90;99.90
2997;DHT22;1508;48.744;9.110;2022-11-21T10:56:12;10.90;99.90
2997;DHT22;1508;48.744;9.110;2022-11-21T10:59:11;10.80;99.90
2997;DHT22;1508;48.744;9.110;2022-11-21T11:02:00;10.40;99.90
2997;DHT22;1508;48.744;9.110;2022-11-21T11:04:46;10.10;99.90
2997;DHT22;1508;48.744;9.110;2022-11-21T11:07:32;9.70;99.90
2997;DHT22;1508;48.744;9.110;2022-11-21T11:10:23;9.50;99.90
2997;DHT22;1508;48.744;9.110;2022-11-21T11:13:20;9.60;99.90
2997;DHT22;1508;48.744;9.110;2022-11-21T11:19:04;9.60;99.90
2997;DHT22;1508;48.744;9.110;2022-11-21T11:21:51;9.60;99.90
2997;DHT22;1508;48.744;9.110;2022-11-21T11:24:43;9.30;99.90
2997;DHT22;1508;48.744;9.110;2022-11-21T11:27:36;9.10;99.90
2997;DHT22;1508;48.744;9.110;2022-11-21T11:30:22;9.10;99.90
2997;DHT22;1508;48.744;9.110;2022-11-21T11:33:34;9.60;99.90
2997;DHT22;1508;48.744;9.110;2022-11-21T11:39:53;9.60;99.90
2997;DHT22;1508;48.744;9.110;2022-11-21T11:42:37;9.30;99.90
2997;DHT22;1508;48.744;9.110;2022-11-21T11:45:44;9.60;99.90
2997;DHT22;1508;48.744;9.110;2022-11-21T11:48:36;9.80;99.90
2997;DHT22;1508;48.744;9.110;2022-11-21T11:51:31;10.10;99.90
2997;DHT22;1508;48.744;9.110;2022-11-21T11:54:26;10.00;99.90
2997;DHT22;1508;48.744;9.110;2022-11-21T11:57:16;10.10;99.90
2997;DHT22;1508;48.744;9.110;2022-11-21T12:06:27;10.10;99.90
2997;DHT22;1508;48.744;9.110;2022-11-21T12:09:36;10.10;99.90
2997;DHT22;1508;48.744;9.110;2022-11-21T12:15:46;9.80;99.90
2997;DHT22;1508;48.744;9.110;2022-11-21T12:18:51;9.70;99.90
2997;DHT22;1508;48.744;9.110;2022-11-21T12:21:39;9.60;99.90
2997;DHT22;1508;48.744;9.110;2022-11-21T12:24:25;9.40;99.90
2997;DHT22;1508;48.744;9.110;2022-11-21T12:27:28;9.50;99.90
2997;DHT22;1508;48.744;9.110;2022-11-21T12:33:30;9.90;99.90
2997;DHT22;1508;48.744;9.110;2022-11-21T12:36:52;9.70;99.90
2997;DHT22;1508;48.744;9.110;2022-11-21T12:42:44;9.60;99.90
2997;DHT22;1508;48.744;9.110;2022-11-21T12:45:38;9.90;99.90
2997;DHT22;1508;48.744;9.110;2022-11-21T12:51:43;10.30;99.90
2997;DHT22;1508;48.744;9.110;2022-11-21T13:06:35;10.90;99.90
2997;DHT22;1508;48.744;9.110;2022-11-21T13:09:23;10.70;99.90
2997;DHT22;1508;48.744;9.110;2022-11-21T13:12:17;10.50;99.90
2997;DHT22;1508;48.744;9.110;2022-11-21T13:21:41;10.70;99.90
2997;DHT22;1508;48.744;9.110;2022-11-21T13:30:19;11.00;99.90
2997;DHT22;1508;48.744;9.110;2022-11-21T13:33:08;11.10;99.90
2997;DHT22;1508;48.744;9.110;2022-11-21T13:35:56;11.10;99.90
2997;DHT22;1508;48.744;9.110;2022-11-21T13:47:33;10.60;99.90
2997;DHT22;1508;48.744;9.110;2022-11-21T13:56:23;10.10;99.90
2997;DHT22;1508;48.744;9.110;2022-11-21T14:05:37;9.90;99.90
2997;DHT22;1508;48.744;9.110;2022-11-21T14:08:26;9.90;99.90
2997;DHT22;1508;48.744;9.110;2022-11-21T14:11:37;9.60;99.90
2997;DHT22;1508;48.744;9.110;2022-11-21T14:14:40;9.50;99.90
2997;DHT22;1508;48.744;9.110;2022-11-21T14:17:50;9.50;99.90
2997;DHT22;1508;48.744;9.110;2022-11-21T14:20:59;9.60;99.90
2997;DHT22;1508;48.744;9.110;2022-11-21T14:23:46;9.50;99.90
2997;DHT22;1508;48.744;9.110;2022-11-21T14:26:46;9.60;99.90
2997;DHT22;1508;48.744;9.110;2022-11-21T14:29:38;9.60;99.90
2997;DHT22;1508;48.744;9.110;2022-11-21T14:32:28;9.30;99.90
2997;DHT22;1508;48.744;9.110;2022-11-21T14:35:20;9.20;99.90
2997;DHT22;1508;48.744;9.110;2022-11-21T14:38:06;9.10;99.90
2997;DHT22;1508;48.744;9.110;2022-11-21T14:47:14;8.90;99.90
2997;DHT22;1508;48.744;9.110;2022-11-21T14:50:00;8.80;99.90
2997;DHT22;1508;48.744;9.110;2022-11-21T14:52:46;8.90;99.90
2997;DHT22;1508;48.744;9.110;2022-11-21T14:55:32;8.90;99.90
2997;DHT22;1508;48.744;9.110;2022-11-21T14:58:19;8.90;99.90
2997;DHT22;1508;48.744;9.110;2022-11-21T15:01:24;8.90;99.90
2997;DHT22;1508;48.744;9.110;2022-11-21T15:04:13;8.80;99.90
2997;DHT22;1508;48.744;9.110;2022-11-21T15:07:00;8.80;99.90
2997;DHT22;1508;48.744;9.110;2022-11-21T15:09:46;8.70;99.90
2997;DHT22;1508;48.744;9.110;2022-11-21T15:12:36;8.70;99.90
2997;DHT22;1508;48.744;9.110;2022-11-21T15:18:17;8.60;99.90
2997;DHT22;1508;48.744;9.110;2022-11-21T15:21:05;8.50;99.90
2997;DHT22;1508;48.744;9.110;2022-11-21T15:23:54;8.40;99.90
2997;DHT22;1508;48.744;9.110;2022-11-21T15:26:40;8.30;99.90
2997;DHT22;1508;48.744;9.110;2022-11-21T15:29:27;8.30;99.90
2997;DHT22;1508;48.744;9.110;2022-11-21T15:32:13;8.20;99.90
2997;DHT22;1508;48.744;9.110;2022-11-21T15:35:53;8.10;99.90
2997;DHT22;1508;48.744;9.110;2022-11-21T15:38:40;8.00;99.90
2997;DHT22;1508;48.744;9.110;2022-11-21T15:41:30;7.80;99.90
2997;DHT22;1508;48.744;9.110;2022-11-21T15:44:21;7.70;99.90
2997;DHT22;1508;48.744;9.110;2022-11-21T15:47:07;7.70;99.90
2997;DHT22;1508;48.744;9.110;2022-11-21T15:49:53;7.60;99.90
2997;DHT22;1508;48.744;9.110;2022-11-21T15:52:47;7.50;99.90
2997;DHT22;1508;48.744;9.110;2022-11-21T15:55:33;7.40;99.90
2997;DHT22;1508;48.744;9.110;2022-11-21T15:58:19;7.40;99.90
2997;DHT22;1508;48.744;9.110;2022-11-21T16:01:09;7.30;99.90
2997;DHT22;1508;48.744;9.110;2022-11-21T16:04:00;7.10;99.90
2997;DHT22;1508;48.744;9.110;2022-11-21T16:06:46;7.00;99.90
2997;DHT22;1508;48.744;9.110;2022-11-21T16:09:32;6.90;99.90
2997;DHT22;1508;48.744;9.110;2022-11-21T16:12:18;6.90;99.90
2997;DHT22;1508;48.744;9.110;2022-11-21T16:15:04;6.80;99.90
2997;DHT22;1508;48.744;9.110;2022-11-21T16:17:50;6.70;99.90
2997;DHT22;1508;48.744;9.110;2022-11-21T16:20:36;6.60;99.90
2997;DHT22;1508;48.744;9.110;2022-11-21T16:23:22;6.50;99.90
2997;DHT22;1508;48.744;9.110;2022-11-21T16:26:09;6.50;99.90
2997;DHT22;1508;48.744;9.110;2022-11-21T16:31:43;5.90;99.90
2997;DHT22;1508;48.744;9.110;2022-11-21T16:34:29;6.20;99.90
2997;DHT22;1508;48.744;9.110;2022-11-21T16:37:14;6.20;99.90
2997;DHT22;1508;48.744;9.110;2022-11-21T16:40:00;6.10;99.90
2997;DHT22;1508;48.744;9.110;2022-11-21T16:42:46;6.10;99.90
2997;DHT22;1508;48.744;9.110;2022-11-21T16:45:32;6.10;99.90
2997;DHT22;1508;48.744;9.110;2022-11-21T17:10:39;5.40;99.90
2997;DHT22;1508;48.744;9.110;2022-11-21T17:13:25;5.70;99.90
2997;DHT22;1508;48.744;9.110;2022-11-21T17:16:12;5.70;99.90
2997;DHT22;1508;48.744;9.110;2022-11-21T17:18:59;5.70;99.90
2997;DHT22;1508;48.744;9.110;2022-11-21T17:21:45;5.60;99.90
2997;DHT22;1508;48.744;9.110;2022-11-21T17:24:31;5.60;99.90
2997;DHT22;1508;48.744;9.110;2022-11-21T17:27:20;5.60;99.90
2997;DHT22;1508;48.744;9.110;2022-11-21T17:30:07;5.60;99.90
2997;DHT22;1508;48.744;9.110;2022-11-21T17:32:53;5.50;99.90
2997;DHT22;1508;48.744;9.110;2022-11-21T17:35:38;5.60;99.90
2997;DHT22;1508;48.744;9.110;2022-11-21T17:38:26;5.60;99.90
2997;DHT22;1508;48.744;9.110;2022-11-21T17:41:14;5.60;99.90
2997;DHT22;1508;48.744;9.110;2022-11-21T17:44:00;5.60;99.90
2997;DHT22;1508;48.744;9.110;2022-11-21T17:46:46;5.50;99.90
2997;DHT22;1508;48.744;9.110;2022-11-21T17:49:32;5.40;99.90
2997;DHT22;1508;48.744;9.110;2022-11-21T17:52:17;5.30;99.90
2997;DHT22;1508;48.744;9.110;2022-11-21T17:55:04;5.40;99.90
2997;DHT22;1508;48.744;9.110;2022-11-21T17:57:50;5.30;99.90
2997;DHT22;1508;48.744;9.110;2022-11-21T19:18:53;6.10;99.90
2997;DHT22;1508;48.744;9.110;2022-11-21T19:21:40;6.30;99.90
2997;DHT22;1508;48.744;9.110;2022-11-21T19:24:26;6.30;99.90
2997;DHT22;1508;48.744;9.110;2022-11-21T19:27:11;6.30;99.90
2997;DHT22;1508;48.744;9.110;2022-11-21T19:29:57;6.30;99.90
2997;DHT22;1508;48.744;9.110;2022-11-21T19:32:43;6.40;99.90
2997;DHT22;1508;48.744;9.110;2022-11-21T19:35:29;6.40;99.90
2997;DHT22;1508;48.744;9.110;2022-11-21T19:38:15;6.40;99.90
2997;DHT22;1508;48.744;9.110;2022-11-21T19:41:03;6.40;99.90
2997;DHT22;1508;48.744;9.110;2022-11-21T19:43:59;6.40;99.90
2997;DHT22;1508;48.744;9.110;2022-11-21T19:46:45;6.50;99.90
2997;DHT22;1508;48.744;9.110;2022-11-21T19:49:31;6.50;99.90
2997;DHT22;1508;48.744;9.110;2022-11-21T19:52:16;6.40;99.90
2997;DHT22;1508;48.744;9.110;2022-11-21T19:55:02;6.40;99.90
2997;DHT22;1508;48.744;9.110;2022-11-21T19:57:48;6.40;99.90
2997;DHT22;1508;48.744;9.110;2022-11-21T20:00:34;6.40;99.90
2997;DHT22;1508;48.744;9.110;2022-11-21T20:03:20;6.30;99.90
2997;DHT22;1508;48.744;9.110;2022-11-21T20:14:36;6.30;99.90
2997;DHT22;1508;48.744;9.110;2022-11-21T22:11:51;6.60;99.90
2997;DHT22;1508;48.744;9.110;2022-11-21T22:17:24;6.30;99.90
2997;DHT22;1508;48.744;9.110;2022-11-21T22:22:56;6.30;99.90
2997;DHT22;1508;48.744;9.110;2022-11-21T22:28:28;6.30;99.90
2997;DHT22;1508;48.744;9.110;2022-11-21T22:34:01;6.30;99.90
2997;DHT22;1508;48.744;9.110;2022-11-21T22:36:47;6.30;99.90
2997;DHT22;1508;48.744;9.110;2022-11-21T22:39:33;6.30;99.90
2997;DHT22;1508;48.744;9.110;2022-11-21T22:42:19;6.30;99.90
2997;DHT22;1508;48.744;9.110;2022-11-21T22:45:05;6.30;99.90
2997;DHT22;1508;48.744;9.110;2022-11-21T22:47:51;6.30;99.90
2997;DHT22;1508;48.744;9.110;2022-11-21T22:50:42;6.20;99.90
2997;DHT22;1508;48.744;9.110;2022-11-21T23:35:12;6.20;99.90
2997;DHT22;1508;48.744;9.110;2022-11-21T23:37:58;6.20;99.90
2997;DHT22;1508;48.744;9.110;2022-11-21T23:40:45;6.20;99.90
2997;DHT22;1508;48.744;9.110;2022-11-21T23:43:31;6.20;99.90
2997;DHT22;1508;48.744;9.110;2022-11-21T23:46:17;6.20;99.90
2997;DHT22;1508;48.744;9.110;2022-11-21T23:49:02;6.10;99.90
2997;DHT22;1508;48.744;9.110;2022-11-21T23:51:49;6.20;99.90
2997;DHT22;1508;48.744;9.110;2022-11-21T23:54:35;6.20;99.90
2997;DHT22;1508;48.744;9.110;2022-11-21T23:57:20;6.20;99.90
